sensor_id;sensor_type;location;lat;lon;timestamp;pressure;altitude;pressure_sealevel;temperature;humidity
30967;BME280;17649;51.836;8.330;2023-05-20T00:01:37;101787.53;;;13.76;100.00
30967;BME280;17649;51.836;8.330;2023-05-20T00:04:38;101786.84;;;13.72;100.00
30967;BME280;17649;51.836;8.330;2023-05-20T00:07:39;101784.94;;;13.76;100.00
30967;BME280;17649;51.836;8.330;2023-05-20T00:10:40;101777.19;;;13.74;100.00
30967;BME280;17649;51.836;8.330;2023-05-20T00:13:40;101787.13;;;13.66;100.00
30967;BME280;17649;51.836;8.330;2023-05-20T00:16:40;101782.41;;;13.57;100.00
30967;BME280;17649;51.836;8.330;2023-05-20T00:19:40;101783.16;;;13.59;100.00
30967;BME280;17649;51.836;8.330;2023-05-20T00:22:40;101788.72;;;13.51;100.00
30967;BME280;17649;51.836;8.330;2023-05-20T00:25:41;101785.13;;;13.54;100.00
30967;BME280;17649;51.836;8.330;2023-05-20T00:28:41;101781.22;;;13.45;100.00
30967;BME280;17649;51.836;8.330;2023-05-20T00:31:41;101782.31;;;13.41;100.00
30967;BME280;17649;51.836;8.330;2023-05-20T00:34:42;101780.63;;;13.40;100.00
30967;BME280;17649;51.836;8.330;2023-05-20T00:37:43;101786.34;;;13.47;100.00
30967;BME280;17649;51.836;8.330;2023-05-20T00:40:43;101785.69;;;13.43;100.00
30967;BME280;17649;51.836;8.330;2023-05-20T00:43:43;101782.59;;;13.35;100.00
30967;BME280;17649;51.836;8.330;2023-05-20T00:46:44;101780.91;;;13.34;100.00
30967;BME280;17649;51.836;8.330;2023-05-20T00:49:45;101779.31;;;13.31;100.00
30967;BME280;17649;51.836;8.330;2023-05-20T00:52:45;101780.38;;;13.27;100.00
30967;BME280;17649;51.836;8.330;2023-05-20T00:55:47;101775.53;;;13.20;100.00
30967;BME280;17649;51.836;8.330;2023-05-20T00:58:48;101779.09;;;13.17;100.00
30967;BME280;17649;51.836;8.330;2023-05-20T01:01:48;101781.84;;;13.14;100.00
30967;BME280;17649;51.836;8.330;2023-05-20T01:04:48;101770.78;;;13.09;100.00
30967;BME280;17649;51.836;8.330;2023-05-20T01:07:49;101780.31;;;13.10;100.00
30967;BME280;17649;51.836;8.330;2023-05-20T01:10:57;101779.50;;;13.08;100.00
30967;BME280;17649;51.836;8.330;2023-05-20T01:14:04;101768.00;;;13.13;100.00
30967;BME280;17649;51.836;8.330;2023-05-20T01:17:05;101767.31;;;13.10;100.00
30967;BME280;17649;51.836;8.330;2023-05-20T01:20:10;101782.09;;;13.08;100.00
30967;BME280;17649;51.836;8.330;2023-05-20T01:23:10;101776.22;;;13.04;100.00
30967;BME280;17649;51.836;8.330;2023-05-20T01:26:10;101766.59;;;13.06;100.00
30967;BME280;17649;51.836;8.330;2023-05-20T01:29:13;101760.63;;;13.23;100.00
30967;BME280;17649;51.836;8.330;2023-05-20T01:32:24;101763.22;;;13.23;100.00
30967;BME280;17649;51.836;8.330;2023-05-20T01:35:25;101765.69;;;13.26;100.00
30967;BME280;17649;51.836;8.330;2023-05-20T01:38:25;101762.25;;;13.26;100.00
30967;BME280;17649;51.836;8.330;2023-05-20T01:41:26;101769.97;;;13.27;100.00
30967;BME280;17649;51.836;8.330;2023-05-20T01:44:26;101766.72;;;13.22;100.00
30967;BME280;17649;51.836;8.330;2023-05-20T01:47:26;101762.53;;;13.20;100.00
30967;BME280;17649;51.836;8.330;2023-05-20T01:50:27;101762.53;;;13.20;100.00
30967;BME280;17649;51.836;8.330;2023-05-20T01:53:27;101762.53;;;13.20;100.00
30967;BME280;17649;51.836;8.330;2023-05-20T01:56:27;101754.66;;;13.21;100.00
30967;BME280;17649;51.836;8.330;2023-05-20T01:59:27;101751.34;;;13.18;100.00
30967;BME280;17649;51.836;8.330;2023-05-20T02:02:27;101749.47;;;13.21;100.00
30967;BME280;17649;51.836;8.330;2023-05-20T02:05:28;101757.34;;;13.20;100.00
30967;BME280;17649;51.836;8.330;2023-05-20T02:08:28;101760.69;;;13.22;100.00
30967;BME280;17649;51.836;8.330;2023-05-20T02:11:28;101755.66;;;13.19;100.00
30967;BME280;17649;51.836;8.330;2023-05-20T02:14:28;101766.09;;;13.17;100.00
30967;BME280;17649;51.836;8.330;2023-05-20T02:17:29;101762.72;;;13.15;100.00
30967;BME280;17649;51.836;8.330;2023-05-20T02:20:29;101754.38;;;13.08;100.00
30967;BME280;17649;51.836;8.330;2023-05-20T02:23:30;101755.44;;;13.04;100.00
30967;BME280;17649;51.836;8.330;2023-05-20T02:26:30;101759.03;;;13.02;100.00
30967;BME280;17649;51.836;8.330;2023-05-20T02:29:31;101749.69;;;12.98;100.00
30967;BME280;17649;51.836;8.330;2023-05-20T02:32:31;101764.56;;;12.94;100.00
30967;BME280;17649;51.836;8.330;2023-05-20T02:35:32;101759.13;;;12.81;100.00
30967;BME280;17649;51.836;8.330;2023-05-20T02:38:32;101754.13;;;12.77;100.00
30967;BME280;17649;51.836;8.330;2023-05-20T02:41:33;101749.16;;;12.72;100.00
30967;BME280;17649;51.836;8.330;2023-05-20T02:44:33;101755.53;;;12.65;100.00
30967;BME280;17649;51.836;8.330;2023-05-20T02:47:33;101758.94;;;12.47;100.00
30967;BME280;17649;51.836;8.330;2023-05-20T02:50:36;101749.47;;;12.46;100.00
30967;BME280;17649;51.836;8.330;2023-05-20T02:53:37;101754.19;;;12.38;100.00
30967;BME280;17649;51.836;8.330;2023-05-20T02:56:37;101749.47;;;12.27;100.00
30967;BME280;17649;51.836;8.330;2023-05-20T02:59:37;101756.34;;;12.28;100.00
30967;BME280;17649;51.836;8.330;2023-05-20T03:02:38;101750.63;;;12.20;100.00
30967;BME280;17649;51.836;8.330;2023-05-20T03:05:38;101753.66;;;12.11;100.00
30967;BME280;17649;51.836;8.330;2023-05-20T03:08:39;101747.03;;;12.04;100.00
30967;BME280;17649;51.836;8.330;2023-05-20T03:11:41;101756.97;;;11.94;100.00
30967;BME280;17649;51.836;8.330;2023-05-20T03:14:41;101754.50;;;11.91;100.00
30967;BME280;17649;51.836;8.330;2023-05-20T03:17:41;101755.66;;;11.84;100.00
30967;BME280;17649;51.836;8.330;2023-05-20T03:20:42;101756.72;;;11.80;100.00
30967;BME280;17649;51.836;8.330;2023-05-20T03:23:42;101766.38;;;11.75;100.00
30967;BME280;17649;51.836;8.330;2023-05-20T03:26:42;101759.72;;;11.69;100.00
30967;BME280;17649;51.836;8.330;2023-05-20T03:29:43;101768.47;;;11.67;100.00
30967;BME280;17649;51.836;8.330;2023-05-20T03:32:43;101764.97;;;11.68;100.00
30967;BME280;17649;51.836;8.330;2023-05-20T03:35:43;101778.56;;;11.73;100.00
30967;BME280;17649;51.836;8.330;2023-05-20T03:38:43;101767.00;;;11.81;100.00
30967;BME280;17649;51.836;8.330;2023-05-20T03:41:43;101772.66;;;11.91;100.00
30967;BME280;17649;51.836;8.330;2023-05-20T03:44:44;101772.06;;;11.84;100.00
30967;BME280;17649;51.836;8.330;2023-05-20T03:47:44;101771.69;;;11.72;100.00
30967;BME280;17649;51.836;8.330;2023-05-20T03:50:44;101770.50;;;11.80;100.00
30967;BME280;17649;51.836;8.330;2023-05-20T03:53:45;101767.41;;;11.71;100.00
30967;BME280;17649;51.836;8.330;2023-05-20T03:56:45;101764.81;;;11.71;100.00
30967;BME280;17649;51.836;8.330;2023-05-20T03:59:45;101760.75;;;11.65;100.00
30967;BME280;17649;51.836;8.330;2023-05-20T04:02:46;101765.16;;;11.63;100.00
30967;BME280;17649;51.836;8.330;2023-05-20T04:05:47;101761.75;;;11.83;100.00
30967;BME280;17649;51.836;8.330;2023-05-20T04:08:47;101763.56;;;11.81;100.00
30967;BME280;17649;51.836;8.330;2023-05-20T04:11:47;101763.38;;;11.85;100.00
30967;BME280;17649;51.836;8.330;2023-05-20T04:14:48;101760.19;;;11.99;100.00
30967;BME280;17649;51.836;8.330;2023-05-20T04:17:49;101756.38;;;12.08;100.00
30967;BME280;17649;51.836;8.330;2023-05-20T04:20:52;101763.44;;;12.04;100.00
30967;BME280;17649;51.836;8.330;2023-05-20T04:23:53;101762.75;;;12.19;100.00
30967;BME280;17649;51.836;8.330;2023-05-20T04:26:53;101762.50;;;12.26;100.00
30967;BME280;17649;51.836;8.330;2023-05-20T04:29:53;101763.50;;;12.23;100.00
30967;BME280;17649;51.836;8.330;2023-05-20T04:32:53;101769.66;;;12.20;100.00
30967;BME280;17649;51.836;8.330;2023-05-20T04:35:54;101760.47;;;12.32;100.00
30967;BME280;17649;51.836;8.330;2023-05-20T04:38:57;101753.28;;;12.39;100.00
30967;BME280;17649;51.836;8.330;2023-05-20T04:41:57;101762.00;;;12.57;100.00
30967;BME280;17649;51.836;8.330;2023-05-20T04:44:58;101757.56;;;12.77;100.00
30967;BME280;17649;51.836;8.330;2023-05-20T04:48:00;101753.75;;;13.03;100.00
30967;BME280;17649;51.836;8.330;2023-05-20T04:51:01;101753.25;;;13.14;100.00
30967;BME280;17649;51.836;8.330;2023-05-20T04:54:02;101753.81;;;13.21;100.00
30967;BME280;17649;51.836;8.330;2023-05-20T04:57:02;101752.06;;;13.21;100.00
30967;BME280;17649;51.836;8.330;2023-05-20T05:00:02;101741.59;;;13.23;100.00
30967;BME280;17649;51.836;8.330;2023-05-20T05:03:06;101748.69;;;13.19;100.00
30967;BME280;17649;51.836;8.330;2023-05-20T05:06:06;101751.41;;;13.16;100.00
30967;BME280;17649;51.836;8.330;2023-05-20T05:09:07;101747.28;;;13.12;100.00
30967;BME280;17649;51.836;8.330;2023-05-20T05:12:07;101745.69;;;13.09;100.00
30967;BME280;17649;51.836;8.330;2023-05-20T05:15:07;101747.78;;;13.20;100.00
30967;BME280;17649;51.836;8.330;2023-05-20T05:18:08;101743.22;;;13.25;100.00
30967;BME280;17649;51.836;8.330;2023-05-20T05:21:08;101748.19;;;13.30;100.00
30967;BME280;17649;51.836;8.330;2023-05-20T05:24:08;101739.78;;;13.06;100.00
30967;BME280;17649;51.836;8.330;2023-05-20T05:27:08;101750.78;;;13.30;100.00
30967;BME280;17649;51.836;8.330;2023-05-20T05:30:09;101752.22;;;13.35;100.00
30967;BME280;17649;51.836;8.330;2023-05-20T05:33:09;101751.31;;;13.36;100.00
30967;BME280;17649;51.836;8.330;2023-05-20T05:36:09;101752.31;;;13.51;100.00
30967;BME280;17649;51.836;8.330;2023-05-20T05:39:10;101743.56;;;13.71;100.00
30967;BME280;17649;51.836;8.330;2023-05-20T05:42:10;101750.94;;;13.96;100.00
30967;BME280;17649;51.836;8.330;2023-05-20T05:45:10;101740.16;;;14.03;100.00
30967;BME280;17649;51.836;8.330;2023-05-20T05:48:10;101742.91;;;14.33;100.00
30967;BME280;17649;51.836;8.330;2023-05-20T05:51:10;101743.25;;;14.43;100.00
30967;BME280;17649;51.836;8.330;2023-05-20T05:54:11;101753.78;;;14.57;100.00
30967;BME280;17649;51.836;8.330;2023-05-20T05:57:11;101744.13;;;14.44;100.00
30967;BME280;17649;51.836;8.330;2023-05-20T06:00:11;101755.75;;;14.70;100.00
30967;BME280;17649;51.836;8.330;2023-05-20T06:03:12;101751.13;;;14.75;100.00
30967;BME280;17649;51.836;8.330;2023-05-20T06:06:12;101746.41;;;14.66;100.00
30967;BME280;17649;51.836;8.330;2023-05-20T06:09:12;101750.34;;;14.73;100.00
30967;BME280;17649;51.836;8.330;2023-05-20T06:12:12;101755.00;;;14.83;100.00
30967;BME280;17649;51.836;8.330;2023-05-20T06:15:12;101745.91;;;15.06;100.00
30967;BME280;17649;51.836;8.330;2023-05-20T06:18:13;101743.97;;;15.10;100.00
30967;BME280;17649;51.836;8.330;2023-05-20T06:21:13;101741.38;;;15.40;100.00
30967;BME280;17649;51.836;8.330;2023-05-20T06:24:13;101737.03;;;15.55;100.00
30967;BME280;17649;51.836;8.330;2023-05-20T06:27:13;101733.75;;;15.67;100.00
30967;BME280;17649;51.836;8.330;2023-05-20T06:30:14;101728.28;;;15.86;100.00
30967;BME280;17649;51.836;8.330;2023-05-20T06:33:14;101730.38;;;16.09;100.00
30967;BME280;17649;51.836;8.330;2023-05-20T06:36:14;101730.16;;;16.26;100.00
30967;BME280;17649;51.836;8.330;2023-05-20T06:39:14;101732.78;;;16.26;100.00
30967;BME280;17649;51.836;8.330;2023-05-20T06:42:15;101720.56;;;16.13;100.00
30967;BME280;17649;51.836;8.330;2023-05-20T06:45:15;101721.75;;;16.21;100.00
30967;BME280;17649;51.836;8.330;2023-05-20T06:48:15;101723.25;;;16.39;100.00
30967;BME280;17649;51.836;8.330;2023-05-20T06:51:15;101723.91;;;16.43;100.00
30967;BME280;17649;51.836;8.330;2023-05-20T06:54:16;101715.78;;;16.33;100.00
30967;BME280;17649;51.836;8.330;2023-05-20T06:57:16;101709.63;;;16.34;100.00
30967;BME280;17649;51.836;8.330;2023-05-20T07:00:16;101708.66;;;16.64;100.00
30967;BME280;17649;51.836;8.330;2023-05-20T07:03:16;101702.63;;;16.90;100.00
30967;BME280;17649;51.836;8.330;2023-05-20T07:06:17;101697.31;;;17.32;100.00
30967;BME280;17649;51.836;8.330;2023-05-20T07:09:17;101694.63;;;17.06;100.00
30967;BME280;17649;51.836;8.330;2023-05-20T07:12:17;101689.78;;;17.40;100.00
30967;BME280;17649;51.836;8.330;2023-05-20T07:15:17;101685.22;;;17.43;100.00
30967;BME280;17649;51.836;8.330;2023-05-20T07:18:18;101684.84;;;17.22;100.00
30967;BME280;17649;51.836;8.330;2023-05-20T07:21:18;101686.41;;;17.12;100.00
30967;BME280;17649;51.836;8.330;2023-05-20T07:24:19;101692.31;;;17.54;100.00
30967;BME280;17649;51.836;8.330;2023-05-20T07:27:19;101687.75;;;17.83;100.00
30967;BME280;17649;51.836;8.330;2023-05-20T07:30:19;101687.56;;;17.73;100.00
30967;BME280;17649;51.836;8.330;2023-05-20T07:33:19;101679.16;;;18.06;100.00
30967;BME280;17649;51.836;8.330;2023-05-20T07:36:20;101668.28;;;17.87;100.00
30967;BME280;17649;51.836;8.330;2023-05-20T07:39:20;101667.16;;;18.28;100.00
30967;BME280;17649;51.836;8.330;2023-05-20T07:42:20;101663.47;;;18.80;100.00
30967;BME280;17649;51.836;8.330;2023-05-20T07:45:21;101643.81;;;19.20;100.00
30967;BME280;17649;51.836;8.330;2023-05-20T07:48:21;101638.81;;;19.28;100.00
30967;BME280;17649;51.836;8.330;2023-05-20T07:51:21;101633.19;;;19.57;100.00
30967;BME280;17649;51.836;8.330;2023-05-20T07:54:22;101633.06;;;19.92;100.00
30967;BME280;17649;51.836;8.330;2023-05-20T07:57:22;101645.84;;;19.97;100.00
30967;BME280;17649;51.836;8.330;2023-05-20T08:00:22;101636.59;;;19.46;100.00
30967;BME280;17649;51.836;8.330;2023-05-20T08:03:22;101641.00;;;19.34;100.00
30967;BME280;17649;51.836;8.330;2023-05-20T08:06:23;101630.91;;;19.97;100.00
30967;BME280;17649;51.836;8.330;2023-05-20T08:09:23;101638.63;;;20.21;100.00
30967;BME280;17649;51.836;8.330;2023-05-20T08:12:24;101635.22;;;20.09;100.00
30967;BME280;17649;51.836;8.330;2023-05-20T08:15:24;101630.88;;;20.42;100.00
30967;BME280;17649;51.836;8.330;2023-05-20T08:18:24;101628.50;;;20.71;100.00
30967;BME280;17649;51.836;8.330;2023-05-20T08:21:26;101632.06;;;20.27;100.00
30967;BME280;17649;51.836;8.330;2023-05-20T08:24:26;101624.03;;;20.39;100.00
30967;BME280;17649;51.836;8.330;2023-05-20T08:27:26;101627.16;;;20.44;100.00
30967;BME280;17649;51.836;8.330;2023-05-20T08:30:27;101616.66;;;20.44;100.00
30967;BME280;17649;51.836;8.330;2023-05-20T08:33:27;101619.75;;;21.02;100.00
30967;BME280;17649;51.836;8.330;2023-05-20T08:36:27;101608.75;;;20.97;100.00
30967;BME280;17649;51.836;8.330;2023-05-20T08:39:27;101603.34;;;20.57;100.00
30967;BME280;17649;51.836;8.330;2023-05-20T08:42:28;101617.44;;;20.88;100.00
30967;BME280;17649;51.836;8.330;2023-05-20T08:45:29;101612.69;;;21.03;100.00
30967;BME280;17649;51.836;8.330;2023-05-20T08:48:30;101615.63;;;21.51;100.00
30967;BME280;17649;51.836;8.330;2023-05-20T08:51:31;101617.47;;;21.91;100.00
30967;BME280;17649;51.836;8.330;2023-05-20T08:54:36;101607.41;;;22.06;100.00
30967;BME280;17649;51.836;8.330;2023-05-20T08:57:42;101610.50;;;21.80;100.00
30967;BME280;17649;51.836;8.330;2023-05-20T09:00:44;101619.22;;;21.50;100.00
30967;BME280;17649;51.836;8.330;2023-05-20T09:03:45;101605.94;;;20.89;100.00
30967;BME280;17649;51.836;8.330;2023-05-20T09:06:45;101608.44;;;21.11;100.00
30967;BME280;17649;51.836;8.330;2023-05-20T09:09:48;101614.53;;;20.91;100.00
30967;BME280;17649;51.836;8.330;2023-05-20T09:12:48;101616.25;;;20.81;100.00
30967;BME280;17649;51.836;8.330;2023-05-20T09:15:49;101618.97;;;20.70;100.00
30967;BME280;17649;51.836;8.330;2023-05-20T09:18:49;101610.06;;;20.39;100.00
30967;BME280;17649;51.836;8.330;2023-05-20T09:21:51;101591.22;;;20.66;100.00
30967;BME280;17649;51.836;8.330;2023-05-20T09:24:52;101604.25;;;20.67;100.00
30967;BME280;17649;51.836;8.330;2023-05-20T09:27:53;101601.44;;;20.37;100.00
30967;BME280;17649;51.836;8.330;2023-05-20T09:30:57;101597.84;;;20.38;100.00
30967;BME280;17649;51.836;8.330;2023-05-20T09:33:57;101594.59;;;20.13;100.00
30967;BME280;17649;51.836;8.330;2023-05-20T09:36:57;101597.72;;;19.96;100.00
30967;BME280;17649;51.836;8.330;2023-05-20T09:40:07;101592.22;;;19.77;100.00
30967;BME280;17649;51.836;8.330;2023-05-20T09:43:09;101597.59;;;19.86;100.00
30967;BME280;17649;51.836;8.330;2023-05-20T09:46:10;101600.13;;;19.88;100.00
30967;BME280;17649;51.836;8.330;2023-05-20T09:49:10;101601.31;;;19.95;100.00
30967;BME280;17649;51.836;8.330;2023-05-20T09:52:13;101595.88;;;20.30;100.00
30967;BME280;17649;51.836;8.330;2023-05-20T09:55:14;101592.56;;;20.06;100.00
30967;BME280;17649;51.836;8.330;2023-05-20T09:58:15;101591.84;;;20.15;100.00
30967;BME280;17649;51.836;8.330;2023-05-20T10:01:16;101592.38;;;20.41;100.00
30967;BME280;17649;51.836;8.330;2023-05-20T10:04:16;101600.59;;;20.79;100.00
30967;BME280;17649;51.836;8.330;2023-05-20T10:07:28;101608.91;;;20.64;100.00
30967;BME280;17649;51.836;8.330;2023-05-20T10:10:45;101601.38;;;21.54;100.00
30967;BME280;17649;51.836;8.330;2023-05-20T10:17:01;101603.00;;;21.85;100.00
30967;BME280;17649;51.836;8.330;2023-05-20T10:20:07;101599.16;;;22.68;100.00
30967;BME280;17649;51.836;8.330;2023-05-20T10:23:19;101588.09;;;23.40;100.00
30967;BME280;17649;51.836;8.330;2023-05-20T10:26:19;101587.72;;;23.26;100.00
30967;BME280;17649;51.836;8.330;2023-05-20T10:29:20;101581.53;;;22.88;100.00
30967;BME280;17649;51.836;8.330;2023-05-20T10:32:25;101577.63;;;23.02;100.00
30967;BME280;17649;51.836;8.330;2023-05-20T10:35:26;101578.75;;;22.99;100.00
30967;BME280;17649;51.836;8.330;2023-05-20T10:38:26;101575.56;;;23.42;100.00
30967;BME280;17649;51.836;8.330;2023-05-20T10:41:27;101569.97;;;23.55;100.00
30967;BME280;17649;51.836;8.330;2023-05-20T10:44:27;101568.47;;;24.25;100.00
30967;BME280;17649;51.836;8.330;2023-05-20T10:47:28;101556.63;;;24.47;100.00
30967;BME280;17649;51.836;8.330;2023-05-20T10:50:32;101561.31;;;24.53;96.17
30967;BME280;17649;51.836;8.330;2023-05-20T10:53:40;101557.72;;;24.09;100.00
30967;BME280;17649;51.836;8.330;2023-05-20T10:56:49;101553.75;;;23.40;100.00
30967;BME280;17649;51.836;8.330;2023-05-20T10:59:50;101546.06;;;23.47;100.00
30967;BME280;17649;51.836;8.330;2023-05-20T11:02:50;101561.03;;;23.19;100.00
30967;BME280;17649;51.836;8.330;2023-05-20T11:05:51;101542.38;;;22.93;100.00
30967;BME280;17649;51.836;8.330;2023-05-20T11:08:51;101541.72;;;23.28;100.00
30967;BME280;17649;51.836;8.330;2023-05-20T11:11:52;101546.00;;;22.92;100.00
30967;BME280;17649;51.836;8.330;2023-05-20T11:14:53;101541.84;;;23.36;100.00
30967;BME280;17649;51.836;8.330;2023-05-20T11:17:54;101539.19;;;23.36;100.00
30967;BME280;17649;51.836;8.330;2023-05-20T11:20:55;101540.06;;;23.55;100.00
30967;BME280;17649;51.836;8.330;2023-05-20T11:23:55;101527.91;;;24.17;94.77
30967;BME280;17649;51.836;8.330;2023-05-20T11:26:55;101529.91;;;24.05;94.25
30967;BME280;17649;51.836;8.330;2023-05-20T11:29:56;101528.88;;;24.16;98.73
30967;BME280;17649;51.836;8.330;2023-05-20T11:35:57;101526.78;;;25.33;90.01
30967;BME280;17649;51.836;8.330;2023-05-20T11:38:57;101525.84;;;25.08;82.09
30967;BME280;17649;51.836;8.330;2023-05-20T11:41:58;101523.91;;;25.18;84.67
30967;BME280;17649;51.836;8.330;2023-05-20T11:44:59;101524.66;;;24.84;87.67
30967;BME280;17649;51.836;8.330;2023-05-20T11:48:00;101518.25;;;25.55;92.59
30967;BME280;17649;51.836;8.330;2023-05-20T11:51:01;101516.13;;;25.58;93.42
30967;BME280;17649;51.836;8.330;2023-05-20T11:54:04;101519.59;;;26.26;86.51
30967;BME280;17649;51.836;8.330;2023-05-20T11:57:04;101519.19;;;27.26;64.45
30967;BME280;17649;51.836;8.330;2023-05-20T12:00:05;101510.47;;;27.01;63.61
30967;BME280;17649;51.836;8.330;2023-05-20T12:03:06;101497.84;;;27.03;63.88
30967;BME280;17649;51.836;8.330;2023-05-20T12:06:06;101493.28;;;27.20;61.19
30967;BME280;17649;51.836;8.330;2023-05-20T12:09:07;101503.84;;;27.37;62.58
30967;BME280;17649;51.836;8.330;2023-05-20T12:12:07;101485.44;;;27.35;58.42
30967;BME280;17649;51.836;8.330;2023-05-20T12:15:10;101484.59;;;28.19;56.18
30967;BME280;17649;51.836;8.330;2023-05-20T12:18:10;101484.69;;;27.49;57.89
30967;BME280;17649;51.836;8.330;2023-05-20T12:21:11;101480.53;;;27.08;62.73
30967;BME280;17649;51.836;8.330;2023-05-20T12:24:11;101489.38;;;26.92;61.24
30967;BME280;17649;51.836;8.330;2023-05-20T12:27:11;101486.66;;;25.62;72.93
30967;BME280;17649;51.836;8.330;2023-05-20T12:30:12;101481.81;;;25.49;80.79
30967;BME280;17649;51.836;8.330;2023-05-20T12:33:12;101479.66;;;25.10;78.13
30967;BME280;17649;51.836;8.330;2023-05-20T12:36:12;101473.94;;;24.97;80.69
30967;BME280;17649;51.836;8.330;2023-05-20T12:39:13;101472.16;;;24.28;92.65
30967;BME280;17649;51.836;8.330;2023-05-20T12:42:16;101482.19;;;24.06;97.94
30967;BME280;17649;51.836;8.330;2023-05-20T12:45:16;101478.03;;;24.22;100.00
30967;BME280;17649;51.836;8.330;2023-05-20T12:48:17;101476.31;;;24.30;100.00
30967;BME280;17649;51.836;8.330;2023-05-20T12:51:17;101473.22;;;24.35;100.00
30967;BME280;17649;51.836;8.330;2023-05-20T12:54:19;101477.22;;;23.86;100.00
30967;BME280;17649;51.836;8.330;2023-05-20T12:57:19;101476.22;;;23.69;100.00
30967;BME280;17649;51.836;8.330;2023-05-20T13:00:20;101472.41;;;23.44;100.00
30967;BME280;17649;51.836;8.330;2023-05-20T13:03:20;101476.22;;;23.32;100.00
30967;BME280;17649;51.836;8.330;2023-05-20T13:06:20;101473.66;;;23.22;100.00
30967;BME280;17649;51.836;8.330;2023-05-20T13:09:21;101481.47;;;23.41;100.00
30967;BME280;17649;51.836;8.330;2023-05-20T13:12:21;101477.13;;;24.75;93.55
30967;BME280;17649;51.836;8.330;2023-05-20T13:15:21;101464.41;;;26.05;81.35
30967;BME280;17649;51.836;8.330;2023-05-20T13:18:21;101457.19;;;27.34;62.48
30967;BME280;17649;51.836;8.330;2023-05-20T13:21:22;101447.88;;;26.91;63.70
30967;BME280;17649;51.836;8.330;2023-05-20T13:24:22;101441.50;;;29.57;56.88
30967;BME280;17649;51.836;8.330;2023-05-20T13:27:22;101429.75;;;32.13;43.47
30967;BME280;17649;51.836;8.330;2023-05-20T13:30:22;101426.59;;;31.63;42.88
30967;BME280;17649;51.836;8.330;2023-05-20T13:33:23;101426.03;;;29.67;47.88
30967;BME280;17649;51.836;8.330;2023-05-20T13:36:23;101419.19;;;30.28;48.75
30967;BME280;17649;51.836;8.330;2023-05-20T13:39:23;101416.47;;;31.26;44.52
30967;BME280;17649;51.836;8.330;2023-05-20T13:42:24;101416.28;;;29.59;46.01
30967;BME280;17649;51.836;8.330;2023-05-20T13:45:24;101415.19;;;27.69;52.04
30967;BME280;17649;51.836;8.330;2023-05-20T13:48:24;101422.28;;;26.18;66.14
30967;BME280;17649;51.836;8.330;2023-05-20T13:51:24;101429.59;;;24.99;79.90
30967;BME280;17649;51.836;8.330;2023-05-20T13:54:25;101424.25;;;24.31;90.07
30967;BME280;17649;51.836;8.330;2023-05-20T13:57:25;101417.41;;;24.72;87.02
30967;BME280;17649;51.836;8.330;2023-05-20T14:00:25;101410.91;;;24.66;94.61
30967;BME280;17649;51.836;8.330;2023-05-20T14:03:25;101410.69;;;26.27;73.61
30967;BME280;17649;51.836;8.330;2023-05-20T14:06:26;101406.63;;;26.80;72.13
30967;BME280;17649;51.836;8.330;2023-05-20T14:09:28;101403.16;;;26.63;64.96
30967;BME280;17649;51.836;8.330;2023-05-20T14:12:28;101403.56;;;26.20;73.17
30967;BME280;17649;51.836;8.330;2023-05-20T14:15:28;101399.63;;;25.24;79.28
30967;BME280;17649;51.836;8.330;2023-05-20T14:18:31;101393.63;;;24.46;94.14
30967;BME280;17649;51.836;8.330;2023-05-20T14:21:32;101405.03;;;24.47;95.40
30967;BME280;17649;51.836;8.330;2023-05-20T14:24:32;101392.41;;;23.97;100.00
30967;BME280;17649;51.836;8.330;2023-05-20T14:27:33;101396.94;;;23.24;100.00
30967;BME280;17649;51.836;8.330;2023-05-20T14:30:33;101395.31;;;22.85;100.00
30967;BME280;17649;51.836;8.330;2023-05-20T14:33:33;101387.44;;;22.66;100.00
30967;BME280;17649;51.836;8.330;2023-05-20T14:36:33;101385.19;;;21.95;100.00
30967;BME280;17649;51.836;8.330;2023-05-20T14:39:40;101392.28;;;21.95;100.00
30967;BME280;17649;51.836;8.330;2023-05-20T14:42:40;101387.28;;;22.11;100.00
30967;BME280;17649;51.836;8.330;2023-05-20T14:45:40;101392.81;;;22.37;100.00
30967;BME280;17649;51.836;8.330;2023-05-20T14:48:40;101389.19;;;22.28;100.00
30967;BME280;17649;51.836;8.330;2023-05-20T14:51:41;101394.22;;;21.64;100.00
30967;BME280;17649;51.836;8.330;2023-05-20T14:54:41;101389.47;;;21.48;100.00
30967;BME280;17649;51.836;8.330;2023-05-20T14:57:41;101392.00;;;21.19;100.00
30967;BME280;17649;51.836;8.330;2023-05-20T15:00:42;101393.25;;;21.15;100.00
30967;BME280;17649;51.836;8.330;2023-05-20T15:03:42;101383.63;;;21.35;100.00
30967;BME280;17649;51.836;8.330;2023-05-20T15:06:42;101387.25;;;21.03;100.00
30967;BME280;17649;51.836;8.330;2023-05-20T15:09:42;101388.13;;;21.13;100.00
30967;BME280;17649;51.836;8.330;2023-05-20T15:12:43;101394.50;;;21.21;100.00
30967;BME280;17649;51.836;8.330;2023-05-20T15:15:43;101392.44;;;21.14;100.00
30967;BME280;17649;51.836;8.330;2023-05-20T15:18:44;101380.34;;;21.02;100.00
30967;BME280;17649;51.836;8.330;2023-05-20T15:21:44;101383.56;;;21.16;100.00
30967;BME280;17649;51.836;8.330;2023-05-20T15:24:44;101379.38;;;21.03;100.00
30967;BME280;17649;51.836;8.330;2023-05-20T15:27:45;101378.22;;;20.96;100.00
30967;BME280;17649;51.836;8.330;2023-05-20T15:30:45;101382.44;;;20.78;100.00
30967;BME280;17649;51.836;8.330;2023-05-20T15:33:50;101384.56;;;20.84;100.00
30967;BME280;17649;51.836;8.330;2023-05-20T15:36:50;101387.50;;;20.60;100.00
30967;BME280;17649;51.836;8.330;2023-05-20T15:39:50;101381.53;;;20.16;100.00